Time;durP1;ratioP1;P1;durP2;ratioP2;P2;SDS_P1;SDS_P2;PMS_P1;PMS_P2;Temp;Humidity;BMP_temperature;BMP_pressure;BME280_temperature;BME280_humidity;BME280_pressure;Samples;Min_cycle;Max_cycle;Signal;HPM_P1;HPM_P2
2022/02/27 00:00:43;;;;;;;7.88;4.22;;;18.10;87.20;;;;;;4196428;28;20683;-75
2022/02/27 00:02:47;;;;;;;8.88;4.07;;;18.10;87.20;;;;;;4196889;28;20971;-74
2022/02/27 00:04:49;;;;;;;6.80;4.07;;;18.10;87.20;;;;;;4196774;28;20214;-73
2022/02/27 00:06:52;;;;;;;9.07;4.13;;;18.10;87.20;;;;;;4196376;28;20215;-73
2022/02/27 00:08:54;;;;;;;6.88;3.47;;;18.20;87.20;;;;;;4196380;28;20268;-75
2022/02/27 00:10:57;;;;;;;6.60;3.60;;;18.10;87.10;;;;;;4184174;28;20726;-75
2022/02/27 00:12:59;;;;;;;5.88;3.78;;;18.10;87.10;;;;;;4179955;28;20619;-75
2022/02/27 00:15:04;;;;;;;6.97;3.65;;;18.10;87.10;;;;;;4179371;28;20695;-75
2022/02/27 00:17:07;;;;;;;7.85;3.90;;;18.10;87.10;;;;;;4180008;28;20269;-76
2022/02/27 00:19:11;;;;;;;6.45;4.00;;;18.10;87.00;;;;;;4180067;28;20219;-75
2022/02/27 00:21:13;;;;;;;7.13;3.90;;;18.10;86.90;;;;;;4179781;28;20285;-75
2022/02/27 00:23:16;;;;;;;6.93;3.72;;;18.10;86.80;;;;;;4191546;28;20280;-75
2022/02/27 00:25:18;;;;;;;8.43;4.13;;;18.00;86.60;;;;;;4196529;28;20223;-75
2022/02/27 00:27:21;;;;;;;8.65;3.90;;;18.10;86.70;;;;;;4186750;28;20212;-75
2022/02/27 00:29:23;;;;;;;8.05;3.90;;;18.00;86.60;;;;;;4194574;28;20214;-75
2022/02/27 00:31:26;;;;;;;8.38;3.72;;;18.00;86.50;;;;;;4194693;28;20260;-75
2022/02/27 00:33:28;;;;;;;7.72;3.53;;;18.00;86.60;;;;;;4194640;28;20256;-75
2022/02/27 00:35:32;;;;;;;7.22;4.00;;;18.00;86.50;;;;;;4194520;28;20215;-75
2022/02/27 00:37:36;;;;;;;6.13;3.55;;;18.00;86.50;;;;;;4194877;28;20249;-75
2022/02/27 00:39:38;;;;;;;7.15;3.95;;;18.00;86.50;;;;;;4194565;28;21818;-75
2022/02/27 00:41:41;;;;;;;7.97;3.92;;;18.00;86.50;;;;;;4194285;28;20243;-75
2022/02/27 00:43:43;;;;;;;7.93;3.90;;;18.00;86.40;;;;;;4194931;28;20222;-76
2022/02/27 00:45:46;;;;;;;8.15;3.83;;;18.00;86.50;;;;;;4190084;28;20288;-75
2022/02/27 00:47:49;;;;;;;6.97;3.30;;;18.00;86.30;;;;;;4194525;28;20255;-75
2022/02/27 00:49:52;;;;;;;7.75;3.72;;;18.00;86.20;;;;;;4194400;28;20215;-75
2022/02/27 00:51:56;;;;;;;7.82;3.72;;;18.00;86.30;;;;;;4194724;28;20276;-75
2022/02/27 00:53:58;;;;;;;6.10;3.53;;;18.00;86.20;;;;;;4194829;28;20260;-75
2022/02/27 00:56:01;;;;;;;6.63;4.10;;;18.00;86.20;;;;;;4190883;28;20215;-75
2022/02/27 00:58:04;;;;;;;7.32;3.80;;;18.00;86.20;;;;;;4192708;28;20224;-75
2022/02/27 01:00:08;;;;;;;6.90;3.75;;;17.90;86.00;;;;;;4194888;28;20269;-75
2022/02/27 01:02:11;;;;;;;5.68;3.38;;;17.90;86.00;;;;;;4193241;28;20302;-75
2022/02/27 01:04:14;;;;;;;7.18;3.58;;;17.90;86.00;;;;;;4194391;28;20691;-75
2022/02/27 01:06:17;;;;;;;6.43;3.42;;;17.90;86.00;;;;;;4194419;28;20215;-75
2022/02/27 01:08:20;;;;;;;6.30;3.60;;;17.90;85.90;;;;;;4194196;28;20741;-75
2022/02/27 01:10:23;;;;;;;7.18;3.83;;;17.90;85.80;;;;;;4193860;28;20215;-75
2022/02/27 01:12:25;;;;;;;6.78;3.70;;;17.90;85.70;;;;;;4191563;28;20223;-75
2022/02/27 01:14:28;;;;;;;6.18;3.50;;;17.90;86.00;;;;;;4194200;28;20703;-75
2022/02/27 01:16:31;;;;;;;7.00;3.78;;;17.90;85.90;;;;;;4194182;28;20272;-75
2022/02/27 01:18:33;;;;;;;5.78;3.17;;;17.90;85.90;;;;;;4192280;28;20292;-75
2022/02/27 01:20:36;;;;;;;5.25;3.22;;;17.90;85.70;;;;;;4194175;28;20272;-75
2022/02/27 01:22:38;;;;;;;6.80;3.33;;;17.90;85.60;;;;;;4195842;28;20605;-75
2022/02/27 01:24:42;;;;;;;5.57;3.80;;;17.90;85.70;;;;;;4197264;28;20618;-75
2022/02/27 01:26:44;;;;;;;5.88;3.65;;;17.90;85.60;;;;;;4198008;28;20219;-78
2022/02/27 01:28:47;;;;;;;5.97;3.30;;;17.90;85.40;;;;;;4195697;28;20215;-79
2022/02/27 01:30:49;;;;;;;7.32;3.50;;;17.90;85.70;;;;;;4194738;28;20219;-78
2022/02/27 01:32:56;;;;;;;6.25;3.60;;;17.90;85.80;;;;;;4198395;28;20648;-78
2022/02/27 01:34:58;;;;;;;6.10;3.45;;;17.80;85.60;;;;;;4195934;28;20241;-76
2022/02/27 01:37:00;;;;;;;6.53;3.55;;;17.80;85.50;;;;;;4197185;28;20619;-75
2022/02/27 01:39:03;;;;;;;7.80;3.50;;;17.80;85.30;;;;;;4196949;28;20223;-75
2022/02/27 01:41:07;;;;;;;10.32;4.07;;;17.80;85.20;;;;;;4197409;28;20223;-75
2022/02/27 01:43:09;;;;;;;4.93;3.30;;;17.80;85.30;;;;;;4197518;28;20211;-75
2022/02/27 01:45:11;;;;;;;6.85;3.38;;;17.80;85.30;;;;;;4197095;28;20280;-75
2022/02/27 01:47:14;;;;;;;7.40;3.70;;;17.80;85.40;;;;;;4197158;28;20260;-75
2022/02/27 01:49:17;;;;;;;8.52;3.67;;;17.80;85.20;;;;;;4197051;28;20664;-75
2022/02/27 01:51:20;;;;;;;7.50;3.60;;;17.80;85.40;;;;;;4192794;28;20216;-75
2022/02/27 01:53:22;;;;;;;6.47;3.58;;;17.80;85.40;;;;;;4197099;28;20268;-75
2022/02/27 01:55:24;;;;;;;6.65;3.40;;;17.80;85.40;;;;;;4197193;28;20928;-75
2022/02/27 01:57:28;;;;;;;5.63;3.38;;;17.80;85.40;;;;;;4197283;28;20214;-79
2022/02/27 01:59:31;;;;;;;8.75;3.80;;;17.80;85.20;;;;;;4197751;28;20222;-79
2022/02/27 02:01:34;;;;;;;5.15;3.22;;;17.80;85.00;;;;;;4197821;28;20285;-79
2022/02/27 02:03:36;;;;;;;7.03;3.30;;;17.80;85.00;;;;;;4198063;28;20628;-79
2022/02/27 02:05:38;;;;;;;6.57;3.70;;;17.70;85.00;;;;;;4196733;28;20626;-75
2022/02/27 02:07:42;;;;;;;5.50;3.25;;;17.70;84.90;;;;;;4196928;28;20219;-76
2022/02/27 02:09:44;;;;;;;6.15;3.22;;;17.80;85.20;;;;;;4195659;28;20621;-75
2022/02/27 02:11:49;;;;;;;5.05;3.10;;;17.70;84.90;;;;;;4181730;28;20204;-75
2022/02/27 02:13:54;;;;;;;8.10;3.33;;;17.70;85.00;;;;;;4181175;28;20212;-75
2022/02/27 02:15:57;;;;;;;7.40;3.50;;;17.70;84.90;;;;;;4181623;28;20219;-75
2022/02/27 02:18:00;;;;;;;5.22;2.85;;;17.70;84.90;;;;;;4181423;28;20240;-75
2022/02/27 02:20:04;;;;;;;5.78;3.33;;;17.70;84.80;;;;;;4181532;28;20253;-75
2022/02/27 02:22:07;;;;;;;5.78;3.25;;;17.70;84.90;;;;;;4183267;28;20236;-75
2022/02/27 02:24:09;;;;;;;8.35;3.80;;;17.70;84.90;;;;;;4195108;28;20211;-75
2022/02/27 02:26:12;;;;;;;6.10;3.70;;;17.60;84.70;;;;;;4191370;28;20208;-75
2022/02/27 02:28:14;;;;;;;5.80;3.63;;;17.70;84.70;;;;;;4184862;28;20214;-75
2022/02/27 02:30:17;;;;;;;7.47;3.58;;;17.70;84.70;;;;;;4181469;28;20257;-75
2022/02/27 02:32:20;;;;;;;5.15;2.90;;;17.70;84.80;;;;;;4185800;28;20204;-79
2022/02/27 02:34:24;;;;;;;6.43;3.28;;;17.70;84.80;;;;;;4198642;28;20207;-79
2022/02/27 02:36:28;;;;;;;7.35;3.60;;;17.60;84.70;;;;;;4198707;28;20734;-79
2022/02/27 02:38:31;;;;;;;6.95;3.45;;;17.60;84.70;;;;;;4198725;28;20215;-79
2022/02/27 02:40:33;;;;;;;5.82;3.20;;;17.60;85.40;;;;;;4198696;28;20211;-79
2022/02/27 02:42:39;;;;;;;6.35;3.35;;;17.60;84.50;;;;;;4198430;28;20234;-79
2022/02/27 02:44:41;;;;;;;5.97;3.20;;;17.60;84.80;;;;;;4198512;28;20241;-79
2022/02/27 02:46:45;;;;;;;6.72;3.60;;;17.60;84.30;;;;;;4189122;28;20615;-79
2022/02/27 02:48:47;;;;;;;7.68;3.97;;;17.60;84.40;;;;;;4193470;28;20280;-79
2022/02/27 02:50:49;;;;;;;5.70;3.70;;;17.60;84.50;;;;;;4197878;28;20204;-79
2022/02/27 02:52:53;;;;;;;5.53;2.92;;;17.60;84.40;;;;;;4198646;28;20207;-79
2022/02/27 02:54:55;;;;;;;7.32;3.65;;;17.60;84.10;;;;;;4198805;28;20222;-79
2022/02/27 02:56:58;;;;;;;5.72;3.40;;;17.60;84.20;;;;;;4198803;28;20219;-79
2022/02/27 02:59:00;;;;;;;5.55;2.88;;;17.60;84.30;;;;;;4198614;28;20219;-79
2022/02/27 03:01:03;;;;;;;5.75;3.25;;;17.60;84.10;;;;;;4198600;28;20265;-79
2022/02/27 03:03:06;;;;;;;6.95;3.20;;;17.60;84.10;;;;;;4190030;28;20243;-79
2022/02/27 03:05:10;;;;;;;5.95;3.25;;;17.60;83.90;;;;;;4181643;28;20219;-79
2022/02/27 03:07:12;;;;;;;7.45;3.92;;;17.60;84.20;;;;;;4182160;28;20258;-79
2022/02/27 03:09:17;;;;;;;6.40;3.40;;;17.50;83.90;;;;;;4182069;28;20216;-79
2022/02/27 03:11:21;;;;;;;5.53;3.17;;;17.60;84.00;;;;;;4182264;28;20280;-79
2022/02/27 03:13:23;;;;;;;5.43;3.30;;;17.50;83.80;;;;;;4182032;28;20207;-79
2022/02/27 03:15:26;;;;;;;7.40;3.75;;;17.50;84.20;;;;;;4181508;28;20239;-79
2022/02/27 03:17:29;;;;;;;5.75;3.22;;;17.50;83.90;;;;;;4181860;28;20253;-79
2022/02/27 03:19:31;;;;;;;6.35;3.45;;;17.50;83.80;;;;;;4183142;28;20220;-79
2022/02/27 03:21:33;;;;;;;6.38;3.20;;;17.50;83.80;;;;;;4187008;28;20216;-79
2022/02/27 03:23:36;;;;;;;7.72;3.38;;;17.50;83.80;;;;;;4196089;28;20672;-79
2022/02/27 03:25:40;;;;;;;4.38;2.85;;;17.50;83.90;;;;;;4198160;28;20214;-79
2022/02/27 03:27:42;;;;;;;5.90;3.35;;;17.50;83.80;;;;;;4192639;28;20211;-79
2022/02/27 03:29:45;;;;;;;6.97;3.45;;;17.50;83.80;;;;;;4183086;28;20269;-79
2022/02/27 03:31:47;;;;;;;6.15;3.30;;;17.50;83.80;;;;;;4181736;28;20216;-79
2022/02/27 03:33:49;;;;;;;7.68;3.63;;;17.50;83.80;;;;;;4197997;28;20215;-79
2022/02/27 03:35:52;;;;;;;4.65;2.88;;;17.50;83.80;;;;;;4198340;28;20215;-79
2022/02/27 03:37:54;;;;;;;4.75;3.08;;;17.40;83.70;;;;;;4184913;28;20262;-79
2022/02/27 03:39:58;;;;;;;4.78;2.80;;;17.40;83.70;;;;;;4181491;28;20224;-79
2022/02/27 03:42:02;;;;;;;5.60;3.17;;;17.40;83.70;;;;;;4180402;28;20676;-79
2022/02/27 03:44:05;;;;;;;7.35;3.35;;;17.40;84.10;;;;;;4181369;28;20232;-79
2022/02/27 03:46:07;;;;;;;4.53;2.78;;;17.50;83.80;;;;;;4180954;28;20219;-79
2022/02/27 03:48:10;;;;;;;4.85;3.17;;;17.40;83.70;;;;;;4181124;28;20220;-79
2022/02/27 03:50:15;;;;;;;4.28;3.10;;;17.40;83.70;;;;;;4181343;28;20216;-79
2022/02/27 03:52:17;;;;;;;9.30;4.15;;;17.40;83.70;;;;;;4181123;28;20223;-79
2022/02/27 03:54:21;;;;;;;5.78;3.30;;;17.40;83.70;;;;;;4181394;28;20266;-79
2022/02/27 03:56:23;;;;;;;8.02;3.30;;;17.40;83.60;;;;;;4181642;28;20220;-79
2022/02/27 03:58:27;;;;;;;4.63;3.20;;;17.40;83.60;;;;;;4181419;28;20257;-79
2022/02/27 04:00:30;;;;;;;6.47;3.30;;;17.40;83.60;;;;;;4181573;28;20215;-79
2022/02/27 04:02:32;;;;;;;6.38;3.17;;;17.30;83.60;;;;;;4180945;28;20665;-79
2022/02/27 04:04:34;;;;;;;5.63;3.47;;;17.30;83.50;;;;;;4181218;28;20265;-77
2022/02/27 04:06:37;;;;;;;6.57;2.95;;;17.40;83.60;;;;;;4181260;28;20281;-77
2022/02/27 04:08:39;;;;;;;5.80;3.00;;;17.40;83.50;;;;;;4181500;28;20652;-77
2022/02/27 04:10:42;;;;;;;5.18;3.17;;;17.40;83.70;;;;;;4181079;28;20216;-77
2022/02/27 04:12:44;;;;;;;6.82;3.45;;;17.30;83.40;;;;;;4181345;28;20273;-77
2022/02/27 04:14:48;;;;;;;4.45;3.00;;;17.30;84.20;;;;;;4196393;28;20280;-77
2022/02/27 04:16:50;;;;;;;5.25;3.10;;;17.30;83.50;;;;;;4197582;28;20709;-77
2022/02/27 04:18:52;;;;;;;5.85;3.03;;;17.30;83.40;;;;;;4197592;28;20260;-77
2022/02/27 04:20:55;;;;;;;4.20;3.00;;;17.30;83.30;;;;;;4197755;28;20558;-77
2022/02/27 04:22:57;;;;;;;4.88;3.35;;;17.30;83.40;;;;;;4197474;28;20300;-77
2022/02/27 04:24:59;;;;;;;5.15;2.83;;;17.30;83.50;;;;;;4197751;28;20215;-77
2022/02/27 04:27:02;;;;;;;8.05;3.45;;;17.30;83.30;;;;;;4197657;28;20729;-77
2022/02/27 04:29:04;;;;;;;4.85;2.78;;;17.30;83.40;;;;;;4197327;28;20211;-77
2022/02/27 04:31:08;;;;;;;5.47;2.97;;;17.30;83.40;;;;;;4185414;28;20262;-77
2022/02/27 04:33:10;;;;;;;7.15;3.55;;;17.20;83.40;;;;;;4192216;28;20257;-78
2022/02/27 04:35:14;;;;;;;6.38;3.30;;;17.30;83.30;;;;;;4196034;28;20280;-77
2022/02/27 04:37:18;;;;;;;4.30;2.90;;;17.30;83.20;;;;;;4193295;28;20348;-77
2022/02/27 04:39:20;;;;;;;6.35;3.00;;;17.30;83.10;;;;;;4192658;28;20219;-77
2022/02/27 04:41:23;;;;;;;4.63;2.88;;;17.30;83.20;;;;;;4193558;28;20215;-77
2022/02/27 04:43:25;;;;;;;5.65;2.72;;;17.30;83.20;;;;;;4194120;28;20296;-79
2022/02/27 04:45:28;;;;;;;4.30;2.90;;;17.20;83.20;;;;;;4192951;28;20242;-77
2022/02/27 04:47:31;;;;;;;5.15;2.83;;;17.20;83.00;;;;;;4193884;28;20253;-77
2022/02/27 04:49:34;;;;;;;4.78;3.38;;;17.20;83.20;;;;;;4194389;28;20656;-77
2022/02/27 04:51:36;;;;;;;5.13;2.83;;;17.20;83.20;;;;;;4194259;28;20248;-77
2022/02/27 04:53:39;;;;;;;4.30;3.00;;;17.20;83.00;;;;;;4193827;28;20211;-77
2022/02/27 04:55:41;;;;;;;6.30;2.80;;;17.20;83.10;;;;;;4192974;28;20273;-77
2022/02/27 04:57:43;;;;;;;5.78;3.05;;;17.20;82.90;;;;;;4195302;28;20301;-77
2022/02/27 04:59:46;;;;;;;6.20;2.72;;;17.20;82.90;;;;;;4197613;28;20620;-79
2022/02/27 05:01:49;;;;;;;5.47;3.08;;;17.20;83.70;;;;;;4197693;28;20215;-79
2022/02/27 05:03:53;;;;;;;3.92;2.55;;;17.20;82.80;;;;;;4196142;28;20222;-79
2022/02/27 05:05:55;;;;;;;7.40;3.05;;;17.20;82.90;;;;;;4196604;28;20845;-77
2022/02/27 05:07:58;;;;;;;5.13;2.88;;;17.20;82.80;;;;;;4197264;28;20223;-77
2022/02/27 05:10:00;;;;;;;5.50;2.80;;;17.20;82.90;;;;;;4197366;28;20629;-79
2022/02/27 05:12:03;;;;;;;5.38;3.00;;;17.10;82.70;;;;;;4197090;28;20216;-79
2022/02/27 05:14:06;;;;;;;5.05;2.90;;;17.10;82.70;;;;;;4196067;28;20226;-79
2022/02/27 05:16:08;;;;;;;5.47;2.78;;;17.20;83.00;;;;;;4192662;28;20926;-78
2022/02/27 05:18:10;;;;;;;5.85;3.17;;;17.10;82.80;;;;;;4194587;28;20223;-78
2022/02/27 05:20:14;;;;;;;6.20;2.70;;;17.10;82.80;;;;;;4194579;28;21031;-79
2022/02/27 05:22:17;;;;;;;6.47;2.97;;;17.10;83.60;;;;;;4195338;28;20610;-79
2022/02/27 05:24:19;;;;;;;7.32;3.13;;;17.10;82.90;;;;;;4195327;28;20640;-79
2022/02/27 05:26:21;;;;;;;5.30;2.50;;;17.10;82.80;;;;;;4195304;28;20284;-79
2022/02/27 05:28:24;;;;;;;6.40;3.17;;;17.10;82.70;;;;;;4195394;28;20648;-79
2022/02/27 05:30:27;;;;;;;3.92;2.83;;;17.10;82.70;;;;;;4195263;28;20215;-79
2022/02/27 05:32:29;;;;;;;5.18;2.80;;;17.10;82.70;;;;;;4194372;28;20241;-79
2022/02/27 05:34:31;;;;;;;5.40;2.65;;;17.10;82.50;;;;;;4193368;28;20272;-79
2022/02/27 05:36:35;;;;;;;4.75;2.67;;;17.10;82.60;;;;;;4195480;28;20210;-79
2022/02/27 05:38:38;;;;;;;4.63;2.42;;;17.10;82.40;;;;;;4195745;28;20261;-78
2022/02/27 05:40:40;;;;;;;4.28;2.78;;;17.10;82.70;;;;;;4196708;28;20269;-79
2022/02/27 05:42:42;;;;;;;4.40;2.70;;;17.00;82.20;;;;;;4197037;28;20227;-78
2022/02/27 05:44:45;;;;;;;3.95;2.55;;;17.10;82.60;;;;;;4197140;28;20294;-79
2022/02/27 05:46:48;;;;;;;6.38;3.10;;;17.10;82.60;;;;;;4196008;28;20256;-78
2022/02/27 05:48:51;;;;;;;5.65;3.03;;;17.10;82.20;;;;;;4196538;28;20215;-79
2022/02/27 05:50:54;;;;;;;6.60;3.17;;;17.00;82.20;;;;;;4196091;28;20219;-78
2022/02/27 05:52:58;;;;;;;5.45;2.67;;;17.00;83.10;;;;;;4196126;28;20219;-79
2022/02/27 05:55:00;;;;;;;5.93;2.72;;;17.00;82.30;;;;;;4194831;28;20555;-79
2022/02/27 05:57:03;;;;;;;4.25;2.42;;;17.00;82.20;;;;;;4195332;28;20264;-79
2022/02/27 05:59:05;;;;;;;6.47;2.83;;;17.00;82.20;;;;;;4195426;28;20249;-79
2022/02/27 06:01:08;;;;;;;5.25;2.55;;;17.00;82.30;;;;;;4196431;28;20219;-79
2022/02/27 06:03:10;;;;;;;5.65;2.55;;;17.00;82.10;;;;;;4195942;28;20733;-77
2022/02/27 06:05:12;;;;;;;5.13;2.67;;;17.00;82.10;;;;;;4196298;28;20651;-77
2022/02/27 06:07:15;;;;;;;4.65;2.60;;;17.00;82.10;;;;;;4193398;28;20211;-77
2022/02/27 06:09:18;;;;;;;6.22;2.80;;;17.00;82.10;;;;;;4193148;28;20227;-77
2022/02/27 06:11:21;;;;;;;5.22;2.97;;;17.00;82.10;;;;;;4192185;28;20258;-77
2022/02/27 06:13:23;;;;;;;3.95;2.53;;;17.00;82.00;;;;;;4195629;28;20242;-77
2022/02/27 06:15:25;;;;;;;4.90;2.30;;;17.00;82.10;;;;;;4195805;28;20227;-77
2022/02/27 06:17:28;;;;;;;5.40;2.47;;;17.00;81.90;;;;;;4196570;28;20616;-77
2022/02/27 06:19:30;;;;;;;5.60;2.47;;;17.00;82.00;;;;;;4195501;28;20211;-77
2022/02/27 06:21:32;;;;;;;4.97;2.60;;;16.90;82.00;;;;;;4196039;28;20257;-77
2022/02/27 06:23:35;;;;;;;4.97;2.45;;;16.90;81.80;;;;;;4193634;28;20273;-78
2022/02/27 06:25:39;;;;;;;6.35;2.63;;;16.90;82.00;;;;;;4196554;28;20656;-77
2022/02/27 06:27:42;;;;;;;6.30;2.72;;;16.90;81.80;;;;;;4195353;28;20219;-77
2022/02/27 06:29:44;;;;;;;3.85;2.42;;;16.90;81.80;;;;;;4193694;28;20617;-78
2022/02/27 06:31:47;;;;;;;4.18;2.33;;;16.90;81.90;;;;;;4195614;28;20257;-77
2022/02/27 06:33:49;;;;;;;4.28;2.35;;;16.90;81.90;;;;;;4195333;28;20219;-77
2022/02/27 06:35:51;;;;;;;3.28;2.40;;;16.90;81.90;;;;;;4194308;28;20227;-77
2022/02/27 06:37:54;;;;;;;3.75;2.50;;;16.90;81.80;;;;;;4194980;28;20215;-78
2022/02/27 06:39:56;;;;;;;5.03;2.85;;;16.90;81.80;;;;;;4195713;28;20219;-77
2022/02/27 06:42:01;;;;;;;4.57;2.60;;;16.90;81.80;;;;;;4194761;28;20272;-77
2022/02/27 06:44:04;;;;;;;6.30;3.15;;;16.90;82.90;;;;;;4195900;28;20223;-77
2022/02/27 06:46:06;;;;;;;5.55;2.22;;;16.90;82.00;;;;;;4192620;28;20635;-78
2022/02/27 06:48:08;;;;;;;2.53;2.03;;;16.90;81.80;;;;;;4194931;28;20628;-77
2022/02/27 06:50:12;;;;;;;4.72;2.20;;;16.90;81.90;;;;;;4193748;28;20273;-74
2022/02/27 06:52:14;;;;;;;6.80;2.83;;;16.90;81.80;;;;;;4194609;28;20651;-74
2022/02/27 06:54:21;;;;;;;7.28;2.70;;;16.90;81.90;;;;;;4197624;28;20256;-74
2022/02/27 06:56:24;;;;;;;5.82;2.58;;;16.90;81.70;;;;;;4197839;28;20215;-74
2022/02/27 06:58:27;;;;;;;6.40;2.60;;;16.90;81.80;;;;;;4197713;28;20636;-74
2022/02/27 07:00:30;;;;;;;5.28;2.67;;;16.80;81.80;;;;;;4197330;28;20265;-74
2022/02/27 07:02:32;;;;;;;5.00;2.58;;;16.80;81.70;;;;;;4197585;28;20269;-74
2022/02/27 07:04:34;;;;;;;5.38;2.60;;;16.90;81.80;;;;;;4190351;28;20637;-74
2022/02/27 07:06:37;;;;;;;6.40;2.80;;;16.80;81.80;;;;;;4180672;28;20212;-74
2022/02/27 07:08:39;;;;;;;4.13;2.47;;;16.80;81.70;;;;;;4195733;28;20223;-74
2022/02/27 07:10:41;;;;;;;5.82;2.60;;;16.80;82.00;;;;;;4197397;28;20216;-74
2022/02/27 07:12:46;;;;;;;3.55;2.03;;;16.80;81.80;;;;;;4196969;28;20211;-74
2022/02/27 07:14:50;;;;;;;3.65;2.30;;;16.80;81.60;;;;;;4196846;28;20288;-74
2022/02/27 07:16:52;;;;;;;5.43;2.67;;;16.90;81.90;;;;;;4196994;28;20219;-74
2022/02/27 07:18:56;;;;;;;5.53;2.60;;;16.80;81.40;;;;;;4196924;28;20215;-74
2022/02/27 07:20:59;;;;;;;6.05;2.72;;;16.80;81.40;;;;;;4196345;28;20215;-74
2022/02/27 07:23:01;;;;;;;4.80;2.50;;;16.80;81.30;;;;;;4197148;28;20276;-74
2022/02/27 07:25:04;;;;;;;4.43;2.08;;;16.80;81.50;;;;;;4191894;28;20301;-74
2022/02/27 07:27:07;;;;;;;5.30;2.75;;;16.80;81.50;;;;;;4196868;28;20674;-74
2022/02/27 07:29:09;;;;;;;4.20;2.20;;;16.80;81.40;;;;;;4196926;28;20218;-74
2022/02/27 07:31:13;;;;;;;5.15;2.22;;;16.80;81.50;;;;;;4196862;28;20218;-74
2022/02/27 07:33:15;;;;;;;3.50;2.13;;;16.80;81.40;;;;;;4197719;28;20290;-77
2022/02/27 07:35:17;;;;;;;4.82;2.45;;;16.80;81.30;;;;;;4197900;28;20215;-77
2022/02/27 07:37:20;;;;;;;4.13;2.55;;;16.80;81.30;;;;;;4198004;28;20274;-77
2022/02/27 07:39:22;;;;;;;3.72;2.45;;;16.80;81.30;;;;;;4197987;28;20272;-77
2022/02/27 07:41:24;;;;;;;4.30;2.17;;;16.80;81.30;;;;;;4197547;28;20264;-77
2022/02/27 07:43:27;;;;;;;5.63;2.35;;;16.80;81.30;;;;;;4184964;28;20219;-77
2022/02/27 07:45:29;;;;;;;5.28;2.45;;;16.80;81.20;;;;;;4181624;28;20368;-77
2022/02/27 07:47:33;;;;;;;2.78;2.10;;;16.80;82.10;;;;;;4181477;28;20272;-77
2022/02/27 07:49:35;;;;;;;5.55;2.70;;;16.80;81.40;;;;;;4181385;28;20212;-77
2022/02/27 07:51:38;;;;;;;4.43;2.40;;;16.80;81.20;;;;;;4181427;28;20219;-77
2022/02/27 07:53:40;;;;;;;4.55;2.30;;;16.80;81.40;;;;;;4181669;28;20219;-77
2022/02/27 07:55:42;;;;;;;3.90;2.20;;;16.80;81.20;;;;;;4181353;28;20262;-77
2022/02/27 07:57:45;;;;;;;4.10;2.25;;;16.80;81.10;;;;;;4181275;28;20704;-77
2022/02/27 07:59:47;;;;;;;4.85;2.50;;;16.80;81.00;;;;;;4181501;28;20215;-78
2022/02/27 08:01:49;;;;;;;4.13;2.20;;;16.80;81.20;;;;;;4181565;28;20656;-78
2022/02/27 08:03:53;;;;;;;5.22;2.58;;;16.80;81.20;;;;;;4181251;28;20270;-77
2022/02/27 08:05:55;;;;;;;4.57;2.05;;;16.80;81.00;;;;;;4181310;28;20692;-77
2022/02/27 08:07:57;;;;;;;4.45;2.22;;;16.80;81.20;;;;;;4181345;28;20619;-78
2022/02/27 08:10:00;;;;;;;3.63;2.10;;;16.80;81.20;;;;;;4181628;28;20557;-78
2022/02/27 08:12:02;;;;;;;4.90;2.00;;;16.80;81.20;;;;;;4181154;28;20220;-77
2022/02/27 08:14:05;;;;;;;5.72;2.10;;;16.80;81.10;;;;;;4180882;28;20244;-77
2022/02/27 08:16:07;;;;;;;3.63;2.05;;;16.80;81.20;;;;;;4184400;28;20211;-78
2022/02/27 08:18:09;;;;;;;4.55;2.65;;;16.80;81.40;;;;;;4181131;28;20215;-77
2022/02/27 08:20:14;;;;;;;3.45;2.13;;;16.80;81.10;;;;;;4180939;28;20220;-78
2022/02/27 08:22:17;;;;;;;4.22;2.40;;;16.80;81.00;;;;;;4184290;28;20211;-77
2022/02/27 08:24:20;;;;;;;4.78;2.65;;;16.80;81.20;;;;;;4197608;28;20215;-77
2022/02/27 08:26:22;;;;;;;5.57;2.43;;;16.80;80.90;;;;;;4193209;28;20292;-77
2022/02/27 08:28:24;;;;;;;5.65;2.63;;;16.80;80.80;;;;;;4183397;28;20216;-77
2022/02/27 08:30:27;;;;;;;3.85;2.22;;;16.80;80.60;;;;;;4181047;28;20676;-77
2022/02/27 08:32:29;;;;;;;5.28;2.35;;;16.80;80.60;;;;;;4190219;28;20207;-77
2022/02/27 08:34:31;;;;;;;5.90;2.15;;;16.80;80.80;;;;;;4194833;28;20265;-77
2022/02/27 08:36:36;;;;;;;3.60;2.00;;;16.80;80.60;;;;;;4200954;28;20627;-77
2022/02/27 08:38:39;;;;;;;4.60;2.22;;;16.80;81.60;;;;;;4200778;28;20219;-77
2022/02/27 08:40:41;;;;;;;4.93;2.03;;;16.80;80.80;;;;;;4200744;28;20264;-77
2022/02/27 08:42:43;;;;;;;3.40;2.03;;;16.80;80.70;;;;;;4200774;28;20261;-77
2022/02/27 08:44:46;;;;;;;4.20;2.13;;;16.80;80.70;;;;;;4200686;28;20264;-77
2022/02/27 08:46:48;;;;;;;4.07;2.03;;;16.70;80.90;;;;;;4200557;28;20235;-77
2022/02/27 08:48:50;;;;;;;4.03;1.98;;;16.80;80.70;;;;;;4200860;28;20265;-77
2022/02/27 08:50:53;;;;;;;3.25;2.10;;;16.80;80.80;;;;;;4200383;28;20245;-77
2022/02/27 08:52:56;;;;;;;4.22;2.00;;;16.80;80.80;;;;;;4194145;28;20253;-77
2022/02/27 08:54:59;;;;;;;2.47;1.52;;;16.80;80.80;;;;;;4199935;28;20215;-77
2022/02/27 08:57:02;;;;;;;4.82;2.47;;;16.80;80.60;;;;;;4200458;28;20222;-77
2022/02/27 08:59:04;;;;;;;5.15;2.33;;;16.80;80.60;;;;;;4200224;28;20578;-77
2022/02/27 09:01:06;;;;;;;4.65;2.25;;;16.80;80.60;;;;;;4200077;28;20269;-77
2022/02/27 09:03:10;;;;;;;4.85;2.20;;;16.80;80.80;;;;;;4200229;28;20207;-77
2022/02/27 09:05:12;;;;;;;3.88;2.10;;;16.80;80.60;;;;;;4199762;28;20273;-77
2022/02/27 09:07:14;;;;;;;3.80;1.98;;;16.80;80.70;;;;;;4199204;28;20219;-77
2022/02/27 09:09:20;;;;;;;4.72;2.47;;;16.80;80.50;;;;;;4193564;28;20256;-77
2022/02/27 09:11:22;;;;;;;3.80;2.10;;;16.80;80.60;;;;;;4198673;28;20255;-77
2022/02/27 09:13:24;;;;;;;4.00;2.08;;;16.80;80.50;;;;;;4198764;28;20268;-77
2022/02/27 09:15:27;;;;;;;3.33;1.88;;;16.80;80.70;;;;;;4198598;28;20653;-77
2022/02/27 09:17:29;;;;;;;4.60;2.17;;;16.80;80.70;;;;;;4199686;28;20223;-77
2022/02/27 09:19:31;;;;;;;4.65;2.22;;;16.80;80.70;;;;;;4200372;28;20265;-77
2022/02/27 09:21:34;;;;;;;3.75;2.10;;;16.80;80.70;;;;;;4200281;28;20261;-77
2022/02/27 09:23:36;;;;;;;5.18;1.98;;;16.80;80.50;;;;;;4199817;28;20215;-77
2022/02/27 09:25:40;;;;;;;3.78;2.00;;;16.80;80.50;;;;;;4186669;28;20262;-77
2022/02/27 09:27:42;;;;;;;3.78;2.17;;;16.80;80.50;;;;;;4183159;28;20281;-77
2022/02/27 09:29:45;;;;;;;4.10;2.00;;;16.80;80.30;;;;;;4183468;28;20902;-77
2022/02/27 09:31:47;;;;;;;3.08;1.73;;;16.80;80.30;;;;;;4183304;28;20216;-77
2022/02/27 09:33:49;;;;;;;5.55;2.20;;;16.80;80.40;;;;;;4199994;28;20215;-79
2022/02/27 09:35:53;;;;;;;5.47;2.33;;;16.80;80.50;;;;;;4200001;28;20215;-80
2022/02/27 09:37:57;;;;;;;5.28;2.17;;;16.80;80.40;;;;;;4199280;28;20717;-79
2022/02/27 09:40:01;;;;;;;4.20;2.30;;;16.80;80.50;;;;;;4199641;28;20211;-79
2022/02/27 09:42:06;;;;;;;4.20;1.98;;;16.80;80.80;;;;;;4194627;28;20318;-79
2022/02/27 09:44:08;;;;;;;4.05;2.15;;;16.80;80.90;;;;;;4199253;28;20618;-79
2022/02/27 09:46:14;;;;;;;3.78;1.98;;;16.80;80.60;;;;;;4199759;28;20235;-79
2022/02/27 09:48:16;;;;;;;3.28;1.58;;;16.90;80.40;;;;;;4199920;28;20219;-79
2022/02/27 09:50:20;;;;;;;4.55;2.08;;;16.80;80.40;;;;;;4199602;28;20207;-79
2022/02/27 09:52:23;;;;;;;2.85;1.77;;;16.80;80.40;;;;;;4199594;28;20617;-79
2022/02/27 09:54:26;;;;;;;4.03;2.03;;;16.90;80.50;;;;;;4199480;28;20219;-79
2022/02/27 09:56:28;;;;;;;3.20;2.00;;;16.90;80.50;;;;;;4199693;28;20264;-80
2022/02/27 09:58:32;;;;;;;5.10;2.15;;;16.80;80.20;;;;;;4199502;28;20211;-79
2022/02/27 10:00:34;;;;;;;4.13;1.90;;;16.80;80.20;;;;;;4187163;28;20219;-79
2022/02/27 10:03:04;;;;;;;3.47;1.80;;;16.80;80.40;;;;;;4183112;28;20216;-79
2022/02/27 10:05:08;;;;;;;5.00;2.53;;;16.80;80.20;;;;;;4183084;28;20269;-79
2022/02/27 10:07:12;;;;;;;2.85;1.77;;;16.90;80.50;;;;;;4183002;28;20249;-79
2022/02/27 10:09:23;;;;;;;4.45;1.95;;;16.80;80.30;;;;;;4183031;28;20220;-79
2022/02/27 10:11:25;;;;;;;3.15;1.80;;;16.80;80.20;;;;;;4182789;28;20618;-79
2022/02/27 10:13:37;;;;;;;3.80;1.88;;;16.80;80.80;;;;;;4181734;28;21009;-79
2022/02/27 10:15:40;;;;;;;4.07;1.95;;;16.80;80.20;;;;;;4193217;28;20211;-79
2022/02/27 10:17:43;;;;;;;4.10;2.00;;;16.80;80.20;;;;;;4195248;28;20216;-79
2022/02/27 10:19:52;;;;;;;3.70;1.92;;;16.80;80.20;;;;;;4197932;28;20226;-79
2022/02/27 10:21:54;;;;;;;4.55;2.20;;;16.80;80.20;;;;;;4199614;28;20218;-80
2022/02/27 10:24:00;;;;;;;2.90;1.80;;;16.80;80.20;;;;;;4199198;28;20264;-80
2022/02/27 10:26:19;;;;;;;3.00;1.63;;;16.80;80.30;;;;;;4199276;28;20227;-80
2022/02/27 10:28:22;;;;;;;2.92;1.70;;;16.80;80.20;;;;;;4199261;28;20609;-79
2022/02/27 10:30:27;;;;;;;4.30;1.80;;;16.90;80.30;;;;;;4199217;28;20257;-79
2022/02/27 10:32:29;;;;;;;2.75;2.05;;;16.80;80.20;;;;;;4199064;28;20203;-79
2022/02/27 10:34:33;;;;;;;3.88;1.90;;;16.80;80.20;;;;;;4198871;28;20628;-79
2022/02/27 10:36:35;;;;;;;3.75;2.13;;;16.80;81.00;;;;;;4186160;28;20208;-79
2022/02/27 10:38:40;;;;;;;4.78;1.80;;;16.80;80.20;;;;;;4182242;28;20336;-79
2022/02/27 10:40:47;;;;;;;4.35;2.22;;;16.80;80.20;;;;;;4186848;28;20215;-80